Time;durP1;ratioP1;P1;durP2;ratioP2;P2;SDS_P1;SDS_P2;PMS_P1;PMS_P2;Temp;Humidity;BMP_temperature;BMP_pressure;BME280_temperature;BME280_humidity;BME280_pressure;Samples;Min_cycle;Max_cycle;Signal;HPM_P1;HPM_P2
2021/12/13 00:00:45;;;;;;;;;;;;;;;2.56;64.90;100251.13;4975372;28;19933;-67
2021/12/13 00:03:19;;;;;;;;;;;;;;;2.50;64.82;100244.19;4975477;28;19969;-68
2021/12/13 00:05:52;;;;;;;;;;;;;;;2.55;64.34;100231.75;4975017;28;19972;-67
2021/12/13 00:08:25;;;;;;;;;;;;;;;2.63;64.02;100245.53;4975059;28;19922;-67
2021/12/13 00:10:56;;;;;;;;;;;;;;;2.67;63.91;100243.19;4975048;28;20384;-67
2021/12/13 00:13:30;;;;;;;;;;;;;;;2.72;63.72;100236.69;4975014;28;19926;-67
2021/12/13 00:16:02;;;;;;;;;;;;;;;2.70;63.89;100243.31;4974992;28;19925;-68
2021/12/13 00:18:34;;;;;;;;;;;;;;;2.72;63.92;100241.72;4974921;28;20384;-67
2021/12/13 00:21:07;;;;;;;;;;;;;;;2.73;64.66;100242.59;4975248;28;19972;-67
2021/12/13 00:23:44;;;;;;;;;;;;;;;2.80;64.45;100238.63;4975138;28;19926;-68
2021/12/13 00:26:21;;;;;;;;;;;;;;;2.78;63.69;100237.72;4975139;28;20273;-68
2021/12/13 00:28:50;;;;;;;;;;;;;;;2.81;64.10;100235.31;4978055;28;20343;-67
2021/12/13 00:31:25;;;;;;;;;;;;;;;2.80;63.76;100238.63;4978575;28;19922;-67
2021/12/13 00:34:03;;;;;;;;;;;;;;;2.71;63.84;100239.97;4978774;28;19922;-67
2021/12/13 00:36:36;;;;;;;;;;;;;;;2.73;64.02;100235.84;4978632;28;19922;-67
2021/12/13 00:39:12;;;;;;;;;;;;;;;2.87;63.98;100241.47;4979087;28;20040;-67
2021/12/13 00:41:43;;;;;;;;;;;;;;;2.96;64.82;100246.84;4978815;28;19922;-66
2021/12/13 00:44:15;;;;;;;;;;;;;;;3.00;64.29;100247.84;4978781;28;20361;-68
2021/12/13 00:46:45;;;;;;;;;;;;;;;2.91;64.24;100244.94;4978340;28;19977;-67
2021/12/13 00:49:17;;;;;;;;;;;;;;;2.94;64.91;100237.50;4978320;28;19929;-67
2021/12/13 00:51:48;;;;;;;;;;;;;;;2.91;64.17;100237.38;4978548;28;19932;-67
2021/12/13 00:54:25;;;;;;;;;;;;;;;2.93;64.30;100248.41;4978249;28;19957;-68
2021/12/13 00:57:14;;;;;;;;;;;;;;;2.97;63.92;100253.63;4978241;28;19922;-66
2021/12/13 00:59:48;;;;;;;;;;;;;;;2.89;64.61;100254.09;4959286;28;19926;-66
2021/12/13 01:02:25;;;;;;;;;;;;;;;2.95;63.99;100239.22;4978110;28;20013;-68
2021/12/13 01:05:04;;;;;;;;;;;;;;;2.98;63.72;100244.38;4978125;28;20012;-68
2021/12/13 01:07:44;;;;;;;;;;;;;;;2.97;63.60;100242.66;4977947;28;19921;-67
2021/12/13 01:10:27;;;;;;;;;;;;;;;3.00;64.03;100245.31;4978325;28;19926;-68
2021/12/13 01:12:58;;;;;;;;;;;;;;;2.99;63.76;100251.16;4977935;28;19926;-67
2021/12/13 01:15:33;;;;;;;;;;;;;;;2.97;64.42;100252.75;4977900;28;19926;-67
2021/12/13 01:18:22;;;;;;;;;;;;;;;3.04;63.90;100247.13;4978180;28;20395;-68
2021/12/13 01:21:00;;;;;;;;;;;;;;;3.05;64.29;100247.19;4978139;28;19922;-67
2021/12/13 01:23:42;;;;;;;;;;;;;;;3.10;64.43;100244.84;4977715;28;19922;-67
2021/12/13 01:26:28;;;;;;;;;;;;;;;3.05;64.26;100243.81;4978013;28;20072;-68
2021/12/13 01:29:02;;;;;;;;;;;;;;;3.02;64.46;100246.22;4977982;28;19929;-67
2021/12/13 01:31:35;;;;;;;;;;;;;;;2.93;64.41;100240.84;4978140;28;19945;-68
2021/12/13 01:34:05;;;;;;;;;;;;;;;2.86;64.89;100244.75;4977597;28;19922;-66
2021/12/13 01:36:45;;;;;;;;;;;;;;;2.83;65.20;100236.25;4978015;28;19921;-68
2021/12/13 01:39:19;;;;;;;;;;;;;;;2.79;65.71;100235.25;4977394;28;20017;-68
2021/12/13 01:41:54;;;;;;;;;;;;;;;2.76;65.45;100227.56;4977382;28;20326;-68
2021/12/13 01:44:27;;;;;;;;;;;;;;;2.68;65.30;100229.81;4977222;28;19944;-67
2021/12/13 01:46:57;;;;;;;;;;;;;;;2.48;65.87;100225.63;4977303;28;20407;-66
2021/12/13 01:49:30;;;;;;;;;;;;;;;2.39;65.53;100234.47;4977272;28;20020;-67
2021/12/13 01:52:01;;;;;;;;;;;;;;;2.36;65.51;100229.31;4977187;28;20025;-66
2021/12/13 01:54:31;;;;;;;;;;;;;;;2.32;65.25;100230.84;4977150;28;19922;-66
2021/12/13 01:57:22;;;;;;;;;;;;;;;2.35;65.39;100235.16;4977348;28;19922;-66
2021/12/13 01:59:54;;;;;;;;;;;;;;;2.21;65.01;100227.03;4977041;28;20020;-66
2021/12/13 02:02:27;;;;;;;;;;;;;;;2.15;65.22;100239.38;4977041;28;20017;-66
2021/12/13 02:04:59;;;;;;;;;;;;;;;2.15;65.70;100239.38;4977183;28;19921;-67
2021/12/13 02:07:36;;;;;;;;;;;;;;;2.11;65.88;100232.50;4976906;28;19925;-66
2021/12/13 02:10:06;;;;;;;;;;;;;;;2.10;65.57;100228.25;4976912;28;19922;-66
2021/12/13 02:12:37;;;;;;;;;;;;;;;2.07;65.98;100225.59;4977468;28;20342;-67
2021/12/13 02:17:48;;;;;;;;;;;;;;;2.25;66.03;100228.88;4976790;28;20359;-65
2021/12/13 02:20:27;;;;;;;;;;;;;;;2.27;65.72;100217.22;4976714;28;19969;-66
2021/12/13 02:23:01;;;;;;;;;;;;;;;2.27;65.33;100219.72;4977489;28;19922;-68
2021/12/13 02:25:35;;;;;;;;;;;;;;;2.25;65.35;100216.31;4976763;28;19922;-66
2021/12/13 02:28:09;;;;;;;;;;;;;;;2.40;65.71;100226.13;4976511;28;19922;-66
2021/12/13 02:30:45;;;;;;;;;;;;;;;2.34;65.54;100211.63;4976821;28;19949;-68
2021/12/13 02:33:23;;;;;;;;;;;;;;;2.35;64.94;100223.41;4975663;28;20013;-68
2021/12/13 02:35:56;;;;;;;;;;;;;;;2.33;65.70;100225.00;4976322;28;19922;-67
2021/12/13 02:38:27;;;;;;;;;;;;;;;2.32;65.21;100218.28;4977014;28;19929;-66
2021/12/13 02:40:59;;;;;;;;;;;;;;;2.34;65.38;100221.69;4976359;28;19930;-66
2021/12/13 02:43:29;;;;;;;;;;;;;;;2.31;65.84;100219.06;4976573;28;19992;-67
2021/12/13 02:46:02;;;;;;;;;;;;;;;2.32;66.23;100219.91;4976180;28;20005;-67
2021/12/13 02:48:33;;;;;;;;;;;;;;;2.32;66.45;100213.22;4976098;28;20021;-67
2021/12/13 02:51:04;;;;;;;;;;;;;;;2.32;65.90;100212.38;4975674;28;19922;-67
2021/12/13 02:53:36;;;;;;;;;;;;;;;2.27;66.66;100204.63;4976104;28;20317;-66
2021/12/13 02:56:08;;;;;;;;;;;;;;;2.29;67.13;100203.03;4976284;28;20368;-68
2021/12/13 02:58:37;;;;;;;;;;;;;;;2.27;67.18;100203.75;4976334;28;19960;-66
2021/12/13 03:01:09;;;;;;;;;;;;;;;2.27;67.53;100202.09;4976214;28;20386;-66
2021/12/13 03:03:42;;;;;;;;;;;;;;;2.24;67.85;100208.66;4975919;28;19928;-68
2021/12/13 03:06:16;;;;;;;;;;;;;;;2.29;67.68;100210.59;4976160;28;19989;-67
2021/12/13 03:08:49;;;;;;;;;;;;;;;2.35;67.50;100208.28;4975746;28;19922;-67
2021/12/13 03:11:24;;;;;;;;;;;;;;;2.23;67.47;100210.31;4976452;28;20249;-68
2021/12/13 03:13:55;;;;;;;;;;;;;;;2.20;67.19;100207.69;4975701;28;19953;-67
2021/12/13 03:16:27;;;;;;;;;;;;;;;2.15;66.72;100209.16;4975913;28;19961;-66
2021/12/13 03:18:58;;;;;;;;;;;;;;;2.19;66.89;100202.59;4976313;28;19922;-68
2021/12/13 03:21:47;;;;;;;;;;;;;;;2.16;66.96;100205.84;4976186;28;19922;-67
2021/12/13 03:24:33;;;;;;;;;;;;;;;2.28;66.34;100206.34;4975596;28;19985;-66
2021/12/13 03:27:11;;;;;;;;;;;;;;;2.24;67.43;100194.44;4969127;28;19929;-67
2021/12/13 03:29:52;;;;;;;;;;;;;;;2.31;67.45;100196.38;4975407;28;19932;-68
2021/12/13 03:32:24;;;;;;;;;;;;;;;2.21;66.57;100194.28;4975116;28;19926;-67
2021/12/13 03:34:57;;;;;;;;;;;;;;;2.17;67.26;100201.66;4975702;28;20288;-68
2021/12/13 03:37:29;;;;;;;;;;;;;;;2.16;66.73;100195.75;4975322;28;19921;-67
2021/12/13 03:40:03;;;;;;;;;;;;;;;2.11;67.56;100199.78;4975670;28;19944;-66
2021/12/13 03:42:38;;;;;;;;;;;;;;;2.10;67.67;100204.72;4975684;28;19922;-68
2021/12/13 03:45:09;;;;;;;;;;;;;;;2.18;67.93;100208.44;4975284;28;19928;-68
2021/12/13 03:47:40;;;;;;;;;;;;;;;2.17;67.87;100207.56;4975777;28;20257;-66
2021/12/13 03:50:15;;;;;;;;;;;;;;;2.28;67.48;100211.38;4975511;28;20074;-68
2021/12/13 03:52:49;;;;;;;;;;;;;;;2.17;67.90;100212.59;4975196;28;19922;-67
2021/12/13 03:55:19;;;;;;;;;;;;;;;2.10;67.43;100209.75;4975212;28;19922;-68
2021/12/13 03:57:54;;;;;;;;;;;;;;;2.08;67.84;100222.31;4975162;28;20431;-66
2021/12/13 04:00:28;;;;;;;;;;;;;;;2.09;67.60;100224.00;4975148;28;19954;-67
2021/12/13 04:03:01;;;;;;;;;;;;;;;2.07;67.51;100214.66;4977045;28;19929;-66
2021/12/13 04:05:32;;;;;;;;;;;;;;;2.10;67.51;100217.31;4979188;28;19922;-66
2021/12/13 04:08:02;;;;;;;;;;;;;;;1.97;67.54;100209.25;4978962;28;19926;-67
2021/12/13 04:10:37;;;;;;;;;;;;;;;1.98;67.26;100207.59;4979012;28;19926;-66
2021/12/13 04:13:14;;;;;;;;;;;;;;;1.92;67.81;100217.44;4979039;28;19922;-67
2021/12/13 04:15:56;;;;;;;;;;;;;;;1.90;68.21;100217.34;4979490;28;19922;-66
2021/12/13 04:18:41;;;;;;;;;;;;;;;1.71;67.47;100224.03;4979259;28;20356;-66
2021/12/13 04:21:15;;;;;;;;;;;;;;;1.70;68.14;100227.38;4979215;28;20403;-66
2021/12/13 04:23:50;;;;;;;;;;;;;;;1.73;68.36;100225.84;4979043;28;19921;-68
2021/12/13 04:26:19;;;;;;;;;;;;;;;1.57;68.38;100220.06;4978804;28;19922;-66
2021/12/13 04:28:53;;;;;;;;;;;;;;;1.58;69.52;100211.75;4978607;28;19922;-67
2021/12/13 04:31:25;;;;;;;;;;;;;;;1.59;68.73;100219.34;4979029;28;20024;-67
2021/12/13 04:33:59;;;;;;;;;;;;;;;1.61;69.34;100237.03;4978289;28;19969;-68
2021/12/13 04:36:29;;;;;;;;;;;;;;;1.68;69.55;100228.97;4979179;28;19922;-67
2021/12/13 04:39:00;;;;;;;;;;;;;;;1.64;69.09;100237.16;4978500;28;19922;-68
2021/12/13 04:41:33;;;;;;;;;;;;;;;1.65;69.20;100229.69;4978791;28;20372;-66
2021/12/13 04:44:08;;;;;;;;;;;;;;;1.57;69.22;100225.97;4978467;28;19929;-66
2021/12/13 04:46:42;;;;;;;;;;;;;;;1.52;69.00;100221.53;4978373;28;19922;-66
2021/12/13 04:49:12;;;;;;;;;;;;;;;1.57;69.48;100231.00;4978248;28;19922;-67
2021/12/13 04:51:43;;;;;;;;;;;;;;;1.63;69.11;100231.25;4978342;28;19929;-68
2021/12/13 04:54:13;;;;;;;;;;;;;;;1.63;69.20;100235.44;4978595;28;19926;-66
2021/12/13 04:56:45;;;;;;;;;;;;;;;1.74;69.74;100240.16;4978526;28;20303;-68
2021/12/13 04:59:17;;;;;;;;;;;;;;;1.72;69.11;100246.78;4978268;28;19921;-66
2021/12/13 05:01:53;;;;;;;;;;;;;;;1.73;69.02;100245.97;4978209;28;19922;-68
2021/12/13 05:04:23;;;;;;;;;;;;;;;1.74;69.77;100249.34;4978322;28;19953;-68
2021/12/13 05:06:55;;;;;;;;;;;;;;;1.78;68.83;100247.03;4978382;28;19972;-68
2021/12/13 05:09:25;;;;;;;;;;;;;;;1.79;69.36;100245.38;4978207;28;19945;-67
2021/12/13 05:11:56;;;;;;;;;;;;;;;1.64;68.57;100247.22;4978277;28;20020;-66
2021/12/13 05:14:36;;;;;;;;;;;;;;;1.64;69.31;100244.69;4977761;28;19922;-67
2021/12/13 05:17:08;;;;;;;;;;;;;;;1.69;69.18;100248.28;4977897;28;19922;-66
2021/12/13 05:19:41;;;;;;;;;;;;;;;1.72;68.74;100240.88;4977749;28;20013;-67
2021/12/13 05:22:14;;;;;;;;;;;;;;;1.69;68.35;100245.75;4977993;28;20371;-66
2021/12/13 05:24:48;;;;;;;;;;;;;;;1.56;68.62;100248.56;4977735;28;19926;-67
2021/12/13 05:27:26;;;;;;;;;;;;;;;1.49;69.16;100256.63;4977686;28;19953;-67
2021/12/13 05:30:06;;;;;;;;;;;;;;;1.51;68.93;100260.06;4977743;28;19962;-67
2021/12/13 05:32:38;;;;;;;;;;;;;;;1.52;69.51;100261.78;4977254;28;20026;-69
2021/12/13 05:35:15;;;;;;;;;;;;;;;1.50;69.57;100269.25;4977589;28;19922;-68
2021/12/13 05:37:49;;;;;;;;;;;;;;;1.51;68.98;100271.00;4977507;28;20020;-68
2021/12/13 05:40:21;;;;;;;;;;;;;;;1.53;69.60;100271.06;4977385;28;19922;-67
2021/12/13 05:42:54;;;;;;;;;;;;;;;1.41;69.07;100278.03;4977808;28;19987;-67
2021/12/13 05:45:34;;;;;;;;;;;;;;;1.32;69.27;100281.00;4977512;28;19926;-68
2021/12/13 05:48:08;;;;;;;;;;;;;;;1.37;69.35;100278.72;4977288;28;19926;-65
2021/12/13 05:50:39;;;;;;;;;;;;;;;1.42;69.21;100282.31;4977212;28;19922;-67
2021/12/13 05:53:13;;;;;;;;;;;;;;;1.45;69.41;100294.97;4977206;28;20013;-67
2021/12/13 05:55:46;;;;;;;;;;;;;;;1.46;69.78;100287.53;4977733;28;19960;-67
2021/12/13 05:58:27;;;;;;;;;;;;;;;1.32;69.20;100284.38;4977100;28;20387;-66
2021/12/13 06:01:01;;;;;;;;;;;;;;;1.32;70.12;100286.88;4977109;28;19921;-66
2021/12/13 06:03:33;;;;;;;;;;;;;;;1.26;69.81;100288.28;4977378;28;19929;-67
2021/12/13 06:06:07;;;;;;;;;;;;;;;1.23;69.63;100289.00;4977186;28;19922;-65
2021/12/13 06:08:42;;;;;;;;;;;;;;;1.08;70.04;100292.47;4976947;28;19976;-66
2021/12/13 06:11:15;;;;;;;;;;;;;;;1.02;70.29;100300.56;4976752;28;19922;-66
2021/12/13 06:13:59;;;;;;;;;;;;;;;1.04;70.90;100304.00;4977066;28;20364;-66
2021/12/13 06:16:43;;;;;;;;;;;;;;;1.05;70.42;100303.22;4975698;28;19922;-65
2021/12/13 06:19:17;;;;;;;;;;;;;;;1.06;70.28;100309.97;4974961;28;20406;-66
2021/12/13 06:21:56;;;;;;;;;;;;;;;1.05;70.42;100308.25;4976881;28;19926;-67
2021/12/13 06:24:30;;;;;;;;;;;;;;;1.06;71.07;100311.59;4976480;28;19922;-67
2021/12/13 06:27:16;;;;;;;;;;;;;;;1.04;71.34;100311.53;4976373;28;19923;-67
2021/12/13 06:30:09;;;;;;;;;;;;;;;0.88;70.78;100319.16;4976772;28;20372;-66
2021/12/13 06:32:41;;;;;;;;;;;;;;;0.92;71.08;100318.50;4969924;28;20393;-66
2021/12/13 06:35:23;;;;;;;;;;;;;;;1.03;70.64;100314.84;4976419;28;19922;-67
2021/12/13 06:37:54;;;;;;;;;;;;;;;1.09;70.77;100320.16;4976702;28;20451;-67
2021/12/13 06:40:27;;;;;;;;;;;;;;;1.16;71.18;100323.81;4976625;28;20380;-65
2021/12/13 06:42:57;;;;;;;;;;;;;;;1.14;70.69;100328.78;4976605;28;20290;-66
2021/12/13 06:45:31;;;;;;;;;;;;;;;1.12;70.75;100329.50;4976441;28;19961;-65
2021/12/13 06:48:01;;;;;;;;;;;;;;;1.16;70.71;100327.19;4976065;28;19953;-66
2021/12/13 06:50:36;;;;;;;;;;;;;;;1.18;70.36;100330.66;4976168;28;19928;-65
2021/12/13 06:53:14;;;;;;;;;;;;;;;1.24;70.97;100325.91;4976292;28;20021;-66
2021/12/13 06:55:43;;;;;;;;;;;;;;;1.29;70.28;100334.53;4976347;28;20336;-66
2021/12/13 06:58:14;;;;;;;;;;;;;;;1.40;70.86;100337.53;4975922;28;19961;-65
2021/12/13 07:00:43;;;;;;;;;;;;;;;1.47;71.01;100328.59;4976340;28;19922;-66
2021/12/13 07:03:17;;;;;;;;;;;;;;;1.48;70.78;100335.38;4975772;28;19929;-66
2021/12/13 07:05:48;;;;;;;;;;;;;;;1.56;70.41;100339.94;4975810;28;19922;-67
2021/12/13 07:08:24;;;;;;;;;;;;;;;1.63;70.71;100343.63;4975851;28;19926;-66
2021/12/13 07:10:59;;;;;;;;;;;;;;;1.62;70.30;100339.38;4975699;28;19922;-66
2021/12/13 07:13:30;;;;;;;;;;;;;;;1.57;70.39;100338.28;4975760;28;19977;-67
2021/12/13 07:16:03;;;;;;;;;;;;;;;1.52;70.37;100344.75;4975892;28;19981;-67
2021/12/13 07:18:40;;;;;;;;;;;;;;;1.57;70.54;100345.84;4975975;28;19922;-67
2021/12/13 07:21:13;;;;;;;;;;;;;;;1.61;71.21;100352.75;4975509;28;19926;-67
2021/12/13 07:23:53;;;;;;;;;;;;;;;1.59;70.40;100349.28;4976090;28;19977;-66
2021/12/13 07:26:33;;;;;;;;;;;;;;;1.64;70.66;100352.88;4975929;28;19926;-65
2021/12/13 07:29:02;;;;;;;;;;;;;;;1.73;69.93;100348.25;4975436;28;19922;-66
2021/12/13 07:31:39;;;;;;;;;;;;;;;1.72;70.76;100357.47;4975378;28;19922;-65
2021/12/13 07:34:12;;;;;;;;;;;;;;;1.78;70.41;100356.84;4975205;28;19965;-67
2021/12/13 07:36:41;;;;;;;;;;;;;;;1.80;70.58;100361.16;4958255;28;19922;-66
2021/12/13 07:39:14;;;;;;;;;;;;;;;1.81;69.99;100364.56;4975322;28;19929;-66
2021/12/13 07:41:50;;;;;;;;;;;;;;;1.79;70.74;100366.16;4975247;28;20008;-66
2021/12/13 07:44:41;;;;;;;;;;;;;;;1.80;70.95;100371.22;4957766;28;20013;-67
2021/12/13 07:47:12;;;;;;;;;;;;;;;1.86;70.74;100369.00;4975340;28;19922;-67
2021/12/13 07:49:43;;;;;;;;;;;;;;;1.93;69.92;100372.66;4975126;28;20427;-67
2021/12/13 07:52:23;;;;;;;;;;;;;;;1.97;70.04;100375.38;4975452;28;19980;-66
2021/12/13 07:54:53;;;;;;;;;;;;;;;2.08;70.06;100375.84;4975105;28;19949;-66
2021/12/13 07:57:31;;;;;;;;;;;;;;;2.12;69.52;100375.19;4975367;28;20454;-69
2021/12/13 08:00:10;;;;;;;;;;;;;;;2.22;69.25;100376.44;4975002;28;19928;-68
2021/12/13 08:02:40;;;;;;;;;;;;;;;2.22;69.09;100376.44;4975280;28;20005;-68
2021/12/13 08:05:12;;;;;;;;;;;;;;;2.26;68.61;100374.13;4974945;28;19929;-68
2021/12/13 08:07:42;;;;;;;;;;;;;;;2.29;68.03;100374.25;4975141;28;20287;-68
2021/12/13 08:10:13;;;;;;;;;;;;;;;2.42;68.42;100383.22;4974806;28;19922;-67
2021/12/13 08:12:46;;;;;;;;;;;;;;;2.60;67.44;100387.38;4974863;28;19922;-66
2021/12/13 08:15:17;;;;;;;;;;;;;;;2.60;67.86;100382.31;4974883;28;19922;-66
2021/12/13 08:17:49;;;;;;;;;;;;;;;2.77;67.11;100384.69;4974966;28;19969;-67
2021/12/13 08:20:23;;;;;;;;;;;;;;;2.72;66.75;100387.00;4974799;28;19977;-69
2021/12/13 08:22:54;;;;;;;;;;;;;;;2.58;66.10;100383.94;4974810;28;19976;-67
2021/12/13 08:25:26;;;;;;;;;;;;;;;2.55;66.06;100391.34;4975131;28;20332;-67
2021/12/13 08:27:58;;;;;;;;;;;;;;;2.53;66.01;100392.06;4974817;28;19922;-67
2021/12/13 08:30:28;;;;;;;;;;;;;;;2.50;65.81;100387.75;4974771;28;19926;-67
2021/12/13 08:33:06;;;;;;;;;;;;;;;2.69;66.51;100392.78;4974440;28;19968;-67
2021/12/13 08:35:48;;;;;;;;;;;;;;;2.95;65.82;100401.41;4974343;28;20020;-67
2021/12/13 08:38:39;;;;;;;;;;;;;;;2.96;65.53;100394.72;4974337;28;19922;-66
2021/12/13 08:41:19;;;;;;;;;;;;;;;2.91;65.58;100398.69;4970145;28;19922;-66
2021/12/13 08:43:54;;;;;;;;;;;;;;;2.89;65.24;100406.22;4974642;28;20318;-70
2021/12/13 08:46:30;;;;;;;;;;;;;;;3.01;65.61;100405.84;4974714;28;19922;-66
2021/12/13 08:49:00;;;;;;;;;;;;;;;2.87;65.60;100407.81;4968246;28;19929;-66
2021/12/13 08:51:31;;;;;;;;;;;;;;;2.87;66.33;100402.78;4959054;29;19922;-66
2021/12/13 08:54:02;;;;;;;;;;;;;;;2.72;66.02;100407.16;4959126;29;19973;-66
2021/12/13 08:56:33;;;;;;;;;;;;;;;2.55;66.46;100414.00;4958824;29;19928;-66
2021/12/13 08:59:08;;;;;;;;;;;;;;;2.49;66.56;100413.78;4958734;29;19946;-67
2021/12/13 09:01:42;;;;;;;;;;;;;;;2.67;66.38;100409.50;4958852;29;19922;-66
2021/12/13 09:04:21;;;;;;;;;;;;;;;2.78;66.60;100414.13;4958833;29;19922;-67
2021/12/13 09:06:59;;;;;;;;;;;;;;;2.79;66.98;100419.22;4958720;29;19923;-66
2021/12/13 09:09:28;;;;;;;;;;;;;;;2.99;66.81;100412.50;4959278;29;19954;-66
2021/12/13 09:12:01;;;;;;;;;;;;;;;3.00;67.08;100411.72;4958511;29;19926;-66
2021/12/13 09:14:40;;;;;;;;;;;;;;;3.00;67.49;100414.22;4958900;29;20430;-66
2021/12/13 09:17:16;;;;;;;;;;;;;;;2.99;68.07;100412.50;4958863;29;19922;-66
2021/12/13 09:19:50;;;;;;;;;;;;;;;3.06;67.77;100414.47;4958474;29;20308;-67
2021/12/13 09:22:20;;;;;;;;;;;;;;;3.08;67.40;100412.84;4958266;29;19926;-68
2021/12/13 09:24:51;;;;;;;;;;;;;;;3.17;67.27;100413.22;4958725;29;20455;-69
2021/12/13 09:27:29;;;;;;;;;;;;;;;3.32;67.13;100408.78;4958324;29;19957;-66
2021/12/13 09:30:04;;;;;;;;;;;;;;;3.50;67.73;100413.72;4958343;29;19922;-66
2021/12/13 09:32:37;;;;;;;;;;;;;;;3.59;66.37;100409.88;4957275;29;19977;-66
2021/12/13 09:35:17;;;;;;;;;;;;;;;3.51;67.18;100402.81;4958216;29;19944;-66
2021/12/13 09:37:46;;;;;;;;;;;;;;;3.46;66.76;100402.63;4958077;29;20327;-66
2021/12/13 09:40:16;;;;;;;;;;;;;;;3.54;66.50;100400.41;4958088;29;20009;-66
2021/12/13 09:42:48;;;;;;;;;;;;;;;3.60;66.71;100405.72;4958234;29;19930;-67
2021/12/13 09:45:27;;;;;;;;;;;;;;;3.71;66.20;100404.44;4958178;29;20385;-67
2021/12/13 09:47:56;;;;;;;;;;;;;;;3.96;66.29;100400.34;4957868;29;19923;-66
2021/12/13 09:50:31;;;;;;;;;;;;;;;4.05;65.55;100398.16;4957687;29;19922;-66
2021/12/13 09:53:05;;;;;;;;;;;;;;;3.99;64.80;100405.53;4957817;29;19958;-66
2021/12/13 09:55:41;;;;;;;;;;;;;;;3.98;65.69;100403.78;4958125;29;19929;-66
2021/12/13 09:58:30;;;;;;;;;;;;;;;4.02;65.36;100399.72;4957697;29;19922;-65
2021/12/13 10:01:06;;;;;;;;;;;;;;;4.22;65.02;100395.41;4916559;29;19946;-66
2021/12/13 10:03:43;;;;;;;;;;;;;;;4.31;64.30;100400.78;4917675;29;19930;-66
2021/12/13 10:06:14;;;;;;;;;;;;;;;4.48;64.46;100405.63;4917331;29;19923;-65
2021/12/13 10:08:44;;;;;;;;;;;;;;;4.75;63.90;100385.50;4917304;29;19930;-66
2021/12/13 10:11:15;;;;;;;;;;;;;;;5.08;63.64;100400.91;4917461;29;20142;-67
2021/12/13 10:13:45;;;;;;;;;;;;;;;5.47;63.22;100401.34;4917285;29;19973;-67
2021/12/13 10:16:19;;;;;;;;;;;;;;;5.74;62.15;100394.56;4935565;29;19923;-69
2021/12/13 10:18:50;;;;;;;;;;;;;;;6.04;61.18;100387.91;4950146;28;19957;-67
2021/12/13 10:21:20;;;;;;;;;;;;;;;6.34;58.79;100393.81;4977099;28;19981;-66
2021/12/13 10:23:51;;;;;;;;;;;;;;;6.59;58.14;100388.59;4959495;28;19922;-66
2021/12/13 10:26:29;;;;;;;;;;;;;;;6.92;57.62;100390.28;4976514;28;19961;-66
2021/12/13 10:28:59;;;;;;;;;;;;;;;7.15;56.88;100390.00;4976617;28;19922;-66
2021/12/13 10:31:32;;;;;;;;;;;;;;;7.41;56.04;100395.72;4976298;28;19922;-65
2021/12/13 10:34:06;;;;;;;;;;;;;;;7.28;55.84;100388.63;4976115;28;19922;-66
2021/12/13 10:36:37;;;;;;;;;;;;;;;7.14;55.13;100382.38;4976292;28;19953;-66
2021/12/13 10:39:08;;;;;;;;;;;;;;;6.96;55.16;100379.41;4976276;28;19922;-65
2021/12/13 10:41:59;;;;;;;;;;;;;;;7.05;53.81;100372.88;4976481;28;19934;-66
2021/12/13 10:44:30;;;;;;;;;;;;;;;7.12;54.23;100379.81;4976323;28;19926;-65
2021/12/13 10:47:03;;;;;;;;;;;;;;;7.16;53.58;100376.50;4976265;28;20430;-66
2021/12/13 10:49:34;;;;;;;;;;;;;;;7.15;52.85;100373.94;4976060;28;19922;-67
2021/12/13 10:52:09;;;;;;;;;;;;;;;7.38;53.99;100376.19;4976288;28;19922;-66
2021/12/13 10:54:43;;;;;;;;;;;;;;;7.57;53.22;100369.84;4976527;28;19988;-67
2021/12/13 10:57:16;;;;;;;;;;;;;;;7.71;52.96;100368.47;4976450;28;20000;-67
2021/12/13 10:59:49;;;;;;;;;;;;;;;7.81;52.75;100365.31;4975967;28;19929;-67
2021/12/13 11:02:23;;;;;;;;;;;;;;;8.09;52.77;100356.53;4975855;28;20033;-67
2021/12/13 11:04:59;;;;;;;;;;;;;;;8.38;52.94;100344.44;4976146;28;19973;-68
2021/12/13 11:07:31;;;;;;;;;;;;;;;8.44;51.82;100352.19;4975774;28;19922;-67
2021/12/13 11:10:06;;;;;;;;;;;;;;;8.53;51.33;100349.81;4976116;28;20291;-67
2021/12/13 11:12:40;;;;;;;;;;;;;;;8.59;51.51;100357.56;4975446;28;20253;-66
2021/12/13 11:15:11;;;;;;;;;;;;;;;8.56;50.55;100360.91;4975668;28;20013;-67
2021/12/13 11:17:45;;;;;;;;;;;;;;;8.53;50.29;100354.88;4975681;28;19926;-66
2021/12/13 11:20:19;;;;;;;;;;;;;;;8.46;50.31;100353.06;4975946;28;19961;-66
2021/12/13 11:22:52;;;;;;;;;;;;;;;8.59;49.90;100360.94;4975579;28;19948;-66
2021/12/13 11:25:26;;;;;;;;;;;;;;;8.73;50.68;100356.13;4975827;28;19922;-67
2021/12/13 11:27:58;;;;;;;;;;;;;;;8.84;50.17;100352.06;4975768;28;19922;-67
2021/12/13 11:30:31;;;;;;;;;;;;;;;8.90;49.68;100354.69;4975773;28;20331;-67
2021/12/13 11:33:16;;;;;;;;;;;;;;;8.74;49.08;100356.13;4974462;28;20005;-67
2021/12/13 11:35:59;;;;;;;;;;;;;;;8.74;49.02;100350.16;4975434;28;19929;-67
2021/12/13 11:38:41;;;;;;;;;;;;;;;8.64;48.55;100349.16;4975362;28;19922;-67
2021/12/13 11:41:22;;;;;;;;;;;;;;;8.58;48.39;100343.13;4975453;28;20024;-65
2021/12/13 11:44:03;;;;;;;;;;;;;;;8.62;48.20;100339.78;4974901;28;19921;-65
2021/12/13 11:46:46;;;;;;;;;;;;;;;8.67;48.14;100336.50;4975701;28;20407;-65
2021/12/13 11:49:33;;;;;;;;;;;;;;;8.69;48.32;100339.06;4975824;28;19922;-66
2021/12/13 11:52:16;;;;;;;;;;;;;;;8.68;47.46;100339.91;4975165;28;20009;-66
2021/12/13 11:55:03;;;;;;;;;;;;;;;8.79;47.43;100348.56;4975159;28;19926;-66
2021/12/13 11:57:47;;;;;;;;;;;;;;;8.92;47.27;100340.31;4915800;29;19945;-65
2021/12/13 12:00:27;;;;;;;;;;;;;;;9.09;47.07;100343.13;4973360;28;19921;-67
2021/12/13 12:03:27;;;;;;;;;;;;;;;9.22;47.48;100338.25;4975073;28;20013;-66
2021/12/13 12:06:07;;;;;;;;;;;;;;;9.38;46.51;100341.88;4974865;28;19926;-68
2021/12/13 12:08:57;;;;;;;;;;;;;;;9.76;46.04;100339.88;4975102;28;20046;-67
2021/12/13 12:11:48;;;;;;;;;;;;;;;9.95;45.44;100339.25;4953473;29;19929;-68
2021/12/13 12:14:23;;;;;;;;;;;;;;;10.08;44.88;100329.22;4953553;29;19926;-66
2021/12/13 12:16:55;;;;;;;;;;;;;;;10.50;44.83;100333.97;4953560;29;19922;-67
2021/12/13 12:19:27;;;;;;;;;;;;;;;10.80;43.67;100333.38;4953502;29;19929;-67
2021/12/13 12:21:57;;;;;;;;;;;;;;;11.41;42.96;100337.25;4953946;29;20082;-66
2021/12/13 12:24:27;;;;;;;;;;;;;;;11.87;42.42;100339.28;4956155;28;19922;-66
2021/12/13 12:26:58;;;;;;;;;;;;;;;12.21;41.58;100334.28;4957377;29;19977;-66
2021/12/13 12:29:29;;;;;;;;;;;;;;;12.26;41.38;100337.72;4957277;29;20273;-66
2021/12/13 12:32:05;;;;;;;;;;;;;;;12.16;41.06;100333.41;4957523;29;19957;-67
2021/12/13 12:34:46;;;;;;;;;;;;;;;11.81;41.19;100335.81;4957297;29;20376;-66
2021/12/13 12:37:25;;;;;;;;;;;;;;;11.30;41.49;100346.56;4957129;29;19922;-67
2021/12/13 12:40:22;;;;;;;;;;;;;;;10.68;42.30;100339.22;4957251;29;20008;-66
2021/12/13 12:42:52;;;;;;;;;;;;;;;10.28;43.00;100337.13;4970419;28;19922;-66
2021/12/13 12:45:26;;;;;;;;;;;;;;;10.01;43.30;100344.41;4978598;28;20327;-66
2021/12/13 12:48:06;;;;;;;;;;;;;;;9.59;44.40;100337.09;4978323;28;19926;-66
2021/12/13 12:50:36;;;;;;;;;;;;;;;9.17;45.04;100342.41;4978261;28;19928;-67
2021/12/13 12:53:07;;;;;;;;;;;;;;;8.77;45.22;100334.97;4978386;28;19922;-67
2021/12/13 12:55:39;;;;;;;;;;;;;;;8.40;46.28;100335.13;4978585;28;19981;-66
2021/12/13 12:58:11;;;;;;;;;;;;;;;8.08;47.43;100340.47;4978138;28;19922;-66
2021/12/13 13:00:42;;;;;;;;;;;;;;;7.85;48.38;100339.13;4978146;28;19929;-66
2021/12/13 13:03:16;;;;;;;;;;;;;;;7.59;49.14;100345.34;4977952;28;19976;-66
2021/12/13 13:05:46;;;;;;;;;;;;;;;7.39;49.25;100349.97;4977938;28;19929;-65
2021/12/13 13:08:26;;;;;;;;;;;;;;;7.26;49.67;100352.19;4977870;28;19968;-66
2021/12/13 13:11:20;;;;;;;;;;;;;;;7.11;51.10;100351.81;4978160;28;20295;-66
2021/12/13 13:13:47;;;;;;;;;;;;;;;6.92;51.13;100348.00;4977582;28;20356;-67
2021/12/13 13:16:17;;;;;;;;;;;;;;;6.89;51.41;100344.50;4977748;28;20376;-68
2021/12/13 13:18:47;;;;;;;;;;;;;;;6.87;51.74;100351.22;4978047;28;19954;-68
2021/12/13 13:21:18;;;;;;;;;;;;;;;6.81;52.24;100356.16;4977669;28;19922;-65
2021/12/13 13:23:48;;;;;;;;;;;;;;;6.69;52.59;100357.56;4977643;28;19997;-66
2021/12/13 13:26:19;;;;;;;;;;;;;;;6.62;52.61;100365.00;4977519;28;19922;-66